ロングイェールビーン の空港の天気 - METARとTAF

スヴァールバル空港 ( ENSB / LYR ) - スヴァールバル諸島・ヤンマイエン島 ロングイェールビーン
飛行場実況気象(Metar)
観測時間08/13 22:20 CEST (08/13 20:20 UTC)
風向・風速西南西 5m/s
視程10km以上
天気現象
全天の8割程度の雲 雲底高度 400m
気温6℃
湿度87%
気圧1006hPa
METARENSB 132020Z 25010KT 9999 BKN013 06/04 Q1006 RMK WIND 1400FT 29004KT
過去の天気等 Google飛行場航空写真 Wunderground天気予報

過去48時間のMETAR

飛行場予報(TAF)
発表時間: -
TAF ENSB 1318/1418 26009KT 9999 SCT015 BKN020